BYU2
, Provo
Last Weather Update:07/30/2011 11:00:00 PM
Date
ETo
ETc
Rain
Irrigation
Req
Temp
Max
Temp
Min
Temp
Avg
Avg RH
Avg Wind
Avg Solar
inches
inches
incehs
inches
F
F
F
%
%
watts/m2
06/01/2011 0.20" 0.16" 0.00" 0.16" 78.1° 47.0° 65.3° 30.7% 3.2 MPH 240.4w/m2
06/02/2011 0.23" 0.18" 0.00" 0.18" 67.1° 47.9° 58.6° 30.7% 5.2 MPH 350.4w/m2
06/03/2011 0.20" 0.16" 0.00" 0.16" 67.9° 39.7° 53.9° 48.2% 2.7 MPH 355.2w/m2
06/04/2011 0.20" 0.16" 0.00" 0.16" 79.9° 43.4° 61.9° 45.7% 2.0 MPH 312.0w/m2
06/05/2011 0.25" 0.20" 0.00" 0.20" 87.5° 48.5° 69.6° 35.6% 2.3 MPH 360.8w/m2
06/06/2011 0.21" 0.17" 0.00" 0.17" 81.9° 54.1° 67.0° 33.9% 5.5 MPH 215.7w/m2
06/07/2011 0.22" 0.17" 0.00" 0.17" 73.3° 48.2° 62.3° 46.0% 2.6 MPH 356.7w/m2
06/08/2011 0.23" 0.19" 0.00" 0.19" 77.8° 49.2° 62.0° 51.0% 3.3 MPH 354.5w/m2
06/09/2011 0.20" 0.16" 0.05" 0.11" 68.5° 47.6° 59.2° 60.8% 3.7 MPH 334.9w/m2
06/10/2011 0.23" 0.18" 0.00" 0.18" 79.4° 45.0° 62.9° 45.3% 2.7 MPH 358.1w/m2
06/11/2011 0.22" 0.18" 0.00" 0.18" 80.9° 54.2° 68.3° 44.4% 2.5 MPH 329.4w/m2
06/12/2011 0.17" 0.14" 0.00" 0.14" 77.7° 55.9° 66.2° 51.6% 2.3 MPH 247.4w/m2
06/13/2011 0.18" 0.15" 0.00" 0.15" 76.1° 52.6° 65.1° 49.3% 3.2 MPH 255.4w/m2
06/14/2011 0.22" 0.18" 0.00" 0.18" 79.8° 52.3° 65.7° 57.0% 2.2 MPH 356.7w/m2
06/15/2011 0.24" 0.19" 0.00" 0.19" 86.9° 53.3° 70.7° 45.7% 2.7 MPH 340.3w/m2
06/16/2011 0.21" 0.17" 0.00" 0.17" 74.2° 55.9° 63.8° 53.8% 4.6 MPH 308.3w/m2
06/17/2011 0.21" 0.17" 0.00" 0.17" 73.4° 46.6° 60.9° 40.2% 2.3 MPH 343.9w/m2
06/18/2011 0.21" 0.16" 0.00" 0.16" 80.0° 49.8° 66.3° 41.7% 2.2 MPH 291.4w/m2
06/19/2011 0.06" 0.05" 0.01" 0.04" 69.5° 50.0° 55.1° 83.8% 2.7 MPH 88.5w/m2
06/20/2011 0.21" 0.16" 0.00" 0.16" 72.5° 49.8° 60.6° 65.9% 2.6 MPH 337.0w/m2
06/21/2011 0.22" 0.18" 0.00" 0.18" 81.3° 49.1° 65.2° 52.3% 2.0 MPH 354.5w/m2
06/22/2011 0.23" 0.19" 0.00" 0.19" 89.2° 53.8° 71.9° 46.9% 1.7 MPH 354.8w/m2
06/23/2011 0.25" 0.20" 0.00" 0.20" 92.7° 64.1° 78.7° 38.1% 3.1 MPH 318.8w/m2
06/24/2011 0.27" 0.21" 0.00" 0.21" 87.5° 60.0° 75.6° 39.7% 2.7 MPH 353.0w/m2
06/25/2011 0.25" 0.20" 0.00" 0.20" 87.9° 58.0° 74.2° 40.1% 2.6 MPH 355.1w/m2
06/26/2011 0.24" 0.19" 0.00" 0.19" 81.9° 57.3° 70.9° 45.1% 2.9 MPH 348.5w/m2
06/27/2011 0.24" 0.19" 0.00" 0.19" 91.9° 55.9° 73.7° 37.9% 2.1 MPH 353.7w/m2
06/28/2011 0.30" 0.24" 0.00" 0.24" 94.5° 58.6° 79.0° 30.8% 4.1 MPH 351.1w/m2
06/29/2011 0.16" 0.13" 0.00" 0.13" 88.0° 66.8° 77.0° 37.0% 4.1 MPH 136.6w/m2
06/30/2011 0.22" 0.18" 0.00" 0.18" 80.8° 64.6° 71.9° 47.4% 3.9 MPH 280.8w/m2
Totals: 6.48" 5.19" 0.06" 5.13" 94.5° 39.7° 66.8° 45.9% 3.0 MPH 311.5w/m2